sensor_id;sensor_type;location;lat;lon;timestamp;P1;durP1;ratioP1;P2;durP2;ratioP2
3700;SDS011;1866;48.374;10.766;2023-04-16T00:01:17;96.40;;;7.50;;
3700;SDS011;1866;48.374;10.766;2023-04-16T00:03:44;97.07;;;7.83;;
3700;SDS011;1866;48.374;10.766;2023-04-16T00:06:10;100.50;;;8.50;;
3700;SDS011;1866;48.374;10.766;2023-04-16T00:08:37;96.90;;;8.47;;
3700;SDS011;1866;48.374;10.766;2023-04-16T00:11:05;99.23;;;8.53;;
3700;SDS011;1866;48.374;10.766;2023-04-16T00:13:33;99.73;;;8.40;;
3700;SDS011;1866;48.374;10.766;2023-04-16T00:16:00;98.17;;;8.80;;
3700;SDS011;1866;48.374;10.766;2023-04-16T00:18:27;97.13;;;8.23;;
3700;SDS011;1866;48.374;10.766;2023-04-16T00:20:53;96.77;;;8.13;;
3700;SDS011;1866;48.374;10.766;2023-04-16T00:23:20;97.17;;;8.40;;
3700;SDS011;1866;48.374;10.766;2023-04-16T00:25:49;96.47;;;8.57;;
3700;SDS011;1866;48.374;10.766;2023-04-16T00:28:16;97.47;;;8.50;;
3700;SDS011;1866;48.374;10.766;2023-04-16T00:30:44;96.37;;;8.03;;
3700;SDS011;1866;48.374;10.766;2023-04-16T00:33:11;96.03;;;8.00;;
3700;SDS011;1866;48.374;10.766;2023-04-16T00:35:37;97.40;;;8.30;;
3700;SDS011;1866;48.374;10.766;2023-04-16T00:38:04;96.50;;;8.50;;
3700;SDS011;1866;48.374;10.766;2023-04-16T00:40:31;97.30;;;8.83;;
3700;SDS011;1866;48.374;10.766;2023-04-16T00:42:58;98.80;;;9.43;;
3700;SDS011;1866;48.374;10.766;2023-04-16T00:45:25;97.00;;;8.40;;
3700;SDS011;1866;48.374;10.766;2023-04-16T00:47:53;97.70;;;9.07;;
3700;SDS011;1866;48.374;10.766;2023-04-16T00:50:21;98.33;;;9.10;;
3700;SDS011;1866;48.374;10.766;2023-04-16T00:52:48;99.10;;;9.50;;
3700;SDS011;1866;48.374;10.766;2023-04-16T00:55:15;98.07;;;9.13;;
3700;SDS011;1866;48.374;10.766;2023-04-16T00:57:43;98.20;;;9.30;;
3700;SDS011;1866;48.374;10.766;2023-04-16T01:00:10;97.93;;;9.10;;
3700;SDS011;1866;48.374;10.766;2023-04-16T01:02:37;99.37;;;9.10;;
3700;SDS011;1866;48.374;10.766;2023-04-16T01:05:06;96.87;;;8.87;;
3700;SDS011;1866;48.374;10.766;2023-04-16T01:07:34;98.70;;;9.83;;
3700;SDS011;1866;48.374;10.766;2023-04-16T01:10:01;99.07;;;9.20;;
3700;SDS011;1866;48.374;10.766;2023-04-16T01:12:28;102.03;;;9.70;;
3700;SDS011;1866;48.374;10.766;2023-04-16T01:14:55;100.07;;;9.53;;
3700;SDS011;1866;48.374;10.766;2023-04-16T01:17:22;96.90;;;8.77;;
3700;SDS011;1866;48.374;10.766;2023-04-16T01:19:49;97.37;;;9.30;;
3700;SDS011;1866;48.374;10.766;2023-04-16T01:22:17;98.80;;;9.07;;
3700;SDS011;1866;48.374;10.766;2023-04-16T01:24:44;98.70;;;9.30;;
3700;SDS011;1866;48.374;10.766;2023-04-16T01:27:10;99.60;;;9.33;;
3700;SDS011;1866;48.374;10.766;2023-04-16T01:29:37;98.80;;;9.30;;
3700;SDS011;1866;48.374;10.766;2023-04-16T01:32:04;97.73;;;9.00;;
3700;SDS011;1866;48.374;10.766;2023-04-16T01:34:31;98.20;;;9.00;;
3700;SDS011;1866;48.374;10.766;2023-04-16T01:36:58;97.17;;;8.87;;
3700;SDS011;1866;48.374;10.766;2023-04-16T01:39:26;99.27;;;8.83;;
3700;SDS011;1866;48.374;10.766;2023-04-16T01:41:53;98.23;;;9.30;;
3700;SDS011;1866;48.374;10.766;2023-04-16T01:44:21;98.87;;;9.23;;
3700;SDS011;1866;48.374;10.766;2023-04-16T01:46:47;97.73;;;9.20;;
3700;SDS011;1866;48.374;10.766;2023-04-16T01:49:14;97.77;;;8.60;;
3700;SDS011;1866;48.374;10.766;2023-04-16T01:51:41;98.70;;;8.80;;
3700;SDS011;1866;48.374;10.766;2023-04-16T01:54:08;97.97;;;9.00;;
3700;SDS011;1866;48.374;10.766;2023-04-16T01:56:36;97.27;;;8.37;;
3700;SDS011;1866;48.374;10.766;2023-04-16T01:59:03;98.67;;;8.93;;
3700;SDS011;1866;48.374;10.766;2023-04-16T02:01:30;99.70;;;9.07;;
3700;SDS011;1866;48.374;10.766;2023-04-16T02:03:56;100.00;;;9.03;;
3700;SDS011;1866;48.374;10.766;2023-04-16T02:06:23;96.93;;;8.40;;
3700;SDS011;1866;48.374;10.766;2023-04-16T02:08:51;100.50;;;8.90;;
3700;SDS011;1866;48.374;10.766;2023-04-16T02:11:18;97.77;;;8.97;;
3700;SDS011;1866;48.374;10.766;2023-04-16T02:13:47;98.10;;;8.60;;
3700;SDS011;1866;48.374;10.766;2023-04-16T02:16:14;97.00;;;8.20;;
3700;SDS011;1866;48.374;10.766;2023-04-16T02:18:41;97.60;;;8.60;;
3700;SDS011;1866;48.374;10.766;2023-04-16T02:21:08;97.07;;;8.27;;
3700;SDS011;1866;48.374;10.766;2023-04-16T02:23:35;97.77;;;8.80;;
3700;SDS011;1866;48.374;10.766;2023-04-16T02:26:04;97.90;;;8.43;;
3700;SDS011;1866;48.374;10.766;2023-04-16T02:28:31;98.40;;;8.60;;
3700;SDS011;1866;48.374;10.766;2023-04-16T02:31:00;99.97;;;9.40;;
3700;SDS011;1866;48.374;10.766;2023-04-16T02:33:26;97.27;;;8.20;;
3700;SDS011;1866;48.374;10.766;2023-04-16T02:35:54;99.47;;;9.00;;
3700;SDS011;1866;48.374;10.766;2023-04-16T02:38:20;98.10;;;8.57;;
3700;SDS011;1866;48.374;10.766;2023-04-16T02:40:47;98.03;;;8.70;;
3700;SDS011;1866;48.374;10.766;2023-04-16T02:43:14;97.87;;;8.53;;
3700;SDS011;1866;48.374;10.766;2023-04-16T02:45:41;98.30;;;9.13;;
3700;SDS011;1866;48.374;10.766;2023-04-16T02:48:11;98.37;;;8.80;;
3700;SDS011;1866;48.374;10.766;2023-04-16T02:50:37;96.77;;;8.40;;
3700;SDS011;1866;48.374;10.766;2023-04-16T02:53:04;99.93;;;8.80;;
3700;SDS011;1866;48.374;10.766;2023-04-16T02:55:31;99.37;;;9.30;;
3700;SDS011;1866;48.374;10.766;2023-04-16T02:57:58;98.60;;;9.00;;
3700;SDS011;1866;48.374;10.766;2023-04-16T03:00:26;100.20;;;9.40;;
3700;SDS011;1866;48.374;10.766;2023-04-16T03:02:52;99.00;;;9.50;;
3700;SDS011;1866;48.374;10.766;2023-04-16T03:05:21;97.87;;;8.00;;
3700;SDS011;1866;48.374;10.766;2023-04-16T03:07:47;98.60;;;8.63;;
3700;SDS011;1866;48.374;10.766;2023-04-16T03:10:20;98.87;;;8.93;;
3700;SDS011;1866;48.374;10.766;2023-04-16T03:12:47;100.07;;;9.10;;
3700;SDS011;1866;48.374;10.766;2023-04-16T03:15:14;97.47;;;8.67;;
3700;SDS011;1866;48.374;10.766;2023-04-16T03:17:41;98.50;;;9.30;;
3700;SDS011;1866;48.374;10.766;2023-04-16T03:20:08;97.87;;;8.87;;
3700;SDS011;1866;48.374;10.766;2023-04-16T03:22:36;98.00;;;8.50;;
3700;SDS011;1866;48.374;10.766;2023-04-16T03:25:03;98.40;;;8.70;;
3700;SDS011;1866;48.374;10.766;2023-04-16T03:27:31;97.93;;;8.17;;
3700;SDS011;1866;48.374;10.766;2023-04-16T03:29:58;97.80;;;8.63;;
3700;SDS011;1866;48.374;10.766;2023-04-16T03:32:25;99.10;;;8.83;;
3700;SDS011;1866;48.374;10.766;2023-04-16T03:34:51;100.40;;;8.83;;
3700;SDS011;1866;48.374;10.766;2023-04-16T03:37:18;98.63;;;9.53;;
3700;SDS011;1866;48.374;10.766;2023-04-16T03:39:47;98.00;;;9.23;;
3700;SDS011;1866;48.374;10.766;2023-04-16T03:42:14;100.63;;;9.40;;
3700;SDS011;1866;48.374;10.766;2023-04-16T03:44:41;98.07;;;9.40;;
3700;SDS011;1866;48.374;10.766;2023-04-16T03:47:08;99.17;;;9.30;;
3700;SDS011;1866;48.374;10.766;2023-04-16T03:49:35;100.37;;;9.17;;
3700;SDS011;1866;48.374;10.766;2023-04-16T03:52:03;98.47;;;9.30;;
3700;SDS011;1866;48.374;10.766;2023-04-16T03:54:30;98.97;;;9.47;;
3700;SDS011;1866;48.374;10.766;2023-04-16T03:56:58;98.37;;;8.73;;
3700;SDS011;1866;48.374;10.766;2023-04-16T03:59:25;100.03;;;8.83;;
3700;SDS011;1866;48.374;10.766;2023-04-16T04:01:51;99.67;;;9.50;;
3700;SDS011;1866;48.374;10.766;2023-04-16T04:04:18;99.20;;;9.07;;
3700;SDS011;1866;48.374;10.766;2023-04-16T04:06:46;97.80;;;8.87;;
3700;SDS011;1866;48.374;10.766;2023-04-16T04:09:13;98.50;;;8.97;;
3700;SDS011;1866;48.374;10.766;2023-04-16T04:11:40;99.07;;;9.53;;
3700;SDS011;1866;48.374;10.766;2023-04-16T04:14:08;97.60;;;9.47;;
3700;SDS011;1866;48.374;10.766;2023-04-16T04:16:35;98.20;;;8.80;;
3700;SDS011;1866;48.374;10.766;2023-04-16T04:19:02;99.73;;;9.50;;
3700;SDS011;1866;48.374;10.766;2023-04-16T04:21:29;99.93;;;9.87;;
3700;SDS011;1866;48.374;10.766;2023-04-16T04:23:56;97.90;;;8.80;;
3700;SDS011;1866;48.374;10.766;2023-04-16T04:26:23;97.90;;;8.70;;
3700;SDS011;1866;48.374;10.766;2023-04-16T04:28:50;97.67;;;9.00;;
3700;SDS011;1866;48.374;10.766;2023-04-16T04:31:18;99.07;;;9.50;;
3700;SDS011;1866;48.374;10.766;2023-04-16T04:33:45;96.97;;;8.77;;
3700;SDS011;1866;48.374;10.766;2023-04-16T04:36:12;98.97;;;9.23;;
3700;SDS011;1866;48.374;10.766;2023-04-16T04:38:38;97.30;;;8.80;;
3700;SDS011;1866;48.374;10.766;2023-04-16T04:41:05;97.57;;;8.83;;
3700;SDS011;1866;48.374;10.766;2023-04-16T04:43:32;98.60;;;9.30;;
3700;SDS011;1866;48.374;10.766;2023-04-16T04:45:59;97.70;;;8.93;;
3700;SDS011;1866;48.374;10.766;2023-04-16T04:48:27;98.30;;;9.03;;
3700;SDS011;1866;48.374;10.766;2023-04-16T04:50:54;99.23;;;9.30;;
3700;SDS011;1866;48.374;10.766;2023-04-16T04:53:20;98.20;;;8.87;;
3700;SDS011;1866;48.374;10.766;2023-04-16T04:55:47;99.70;;;9.83;;
3700;SDS011;1866;48.374;10.766;2023-04-16T04:58:14;98.13;;;8.80;;
3700;SDS011;1866;48.374;10.766;2023-04-16T05:00:41;97.70;;;8.73;;
3700;SDS011;1866;48.374;10.766;2023-04-16T05:03:08;100.70;;;10.60;;
3700;SDS011;1866;48.374;10.766;2023-04-16T05:05:38;98.53;;;9.03;;
3700;SDS011;1866;48.374;10.766;2023-04-16T05:08:06;98.30;;;8.93;;
3700;SDS011;1866;48.374;10.766;2023-04-16T05:10:32;98.30;;;8.67;;
3700;SDS011;1866;48.374;10.766;2023-04-16T05:12:59;101.47;;;8.90;;
3700;SDS011;1866;48.374;10.766;2023-04-16T05:15:26;98.40;;;8.87;;
3700;SDS011;1866;48.374;10.766;2023-04-16T05:17:53;97.60;;;9.20;;
3700;SDS011;1866;48.374;10.766;2023-04-16T05:20:20;98.40;;;8.80;;
3700;SDS011;1866;48.374;10.766;2023-04-16T05:22:49;98.97;;;9.13;;
3700;SDS011;1866;48.374;10.766;2023-04-16T05:25:16;96.87;;;8.30;;
3700;SDS011;1866;48.374;10.766;2023-04-16T05:27:43;98.60;;;8.77;;
3700;SDS011;1866;48.374;10.766;2023-04-16T05:30:10;99.40;;;9.33;;
3700;SDS011;1866;48.374;10.766;2023-04-16T05:32:37;98.00;;;8.93;;
3700;SDS011;1866;48.374;10.766;2023-04-16T05:35:05;97.87;;;8.33;;
3700;SDS011;1866;48.374;10.766;2023-04-16T05:37:32;98.43;;;8.83;;
3700;SDS011;1866;48.374;10.766;2023-04-16T05:40:00;99.37;;;9.40;;
3700;SDS011;1866;48.374;10.766;2023-04-16T05:42:28;98.33;;;8.87;;
3700;SDS011;1866;48.374;10.766;2023-04-16T05:44:55;98.17;;;8.63;;
3700;SDS011;1866;48.374;10.766;2023-04-16T05:47:21;99.50;;;8.87;;
3700;SDS011;1866;48.374;10.766;2023-04-16T05:49:49;100.17;;;9.43;;
3700;SDS011;1866;48.374;10.766;2023-04-16T05:52:16;98.43;;;9.10;;
3700;SDS011;1866;48.374;10.766;2023-04-16T05:54:42;98.97;;;9.30;;
3700;SDS011;1866;48.374;10.766;2023-04-16T05:57:11;103.40;;;8.97;;
3700;SDS011;1866;48.374;10.766;2023-04-16T05:59:38;97.90;;;8.27;;
3700;SDS011;1866;48.374;10.766;2023-04-16T06:02:05;98.77;;;8.20;;
3700;SDS011;1866;48.374;10.766;2023-04-16T06:04:32;98.60;;;8.77;;
3700;SDS011;1866;48.374;10.766;2023-04-16T06:06:59;99.27;;;8.77;;
3700;SDS011;1866;48.374;10.766;2023-04-16T06:09:26;97.60;;;8.10;;
3700;SDS011;1866;48.374;10.766;2023-04-16T06:11:53;98.97;;;8.90;;
3700;SDS011;1866;48.374;10.766;2023-04-16T06:14:21;98.07;;;8.50;;
3700;SDS011;1866;48.374;10.766;2023-04-16T06:16:48;103.40;;;9.97;;
3700;SDS011;1866;48.374;10.766;2023-04-16T06:19:15;98.97;;;8.67;;
3700;SDS011;1866;48.374;10.766;2023-04-16T06:21:42;99.27;;;9.00;;
3700;SDS011;1866;48.374;10.766;2023-04-16T06:24:09;97.93;;;8.00;;
3700;SDS011;1866;48.374;10.766;2023-04-16T06:26:37;98.97;;;8.87;;
3700;SDS011;1866;48.374;10.766;2023-04-16T06:29:04;98.47;;;7.80;;
3700;SDS011;1866;48.374;10.766;2023-04-16T06:31:32;98.83;;;8.60;;
3700;SDS011;1866;48.374;10.766;2023-04-16T06:34:00;98.57;;;8.20;;
3700;SDS011;1866;48.374;10.766;2023-04-16T06:36:26;98.00;;;7.97;;
3700;SDS011;1866;48.374;10.766;2023-04-16T06:38:53;102.23;;;7.87;;
3700;SDS011;1866;48.374;10.766;2023-04-16T06:41:20;97.47;;;8.07;;
3700;SDS011;1866;48.374;10.766;2023-04-16T06:43:49;98.27;;;8.27;;
3700;SDS011;1866;48.374;10.766;2023-04-16T06:46:16;97.57;;;8.07;;
3700;SDS011;1866;48.374;10.766;2023-04-16T06:48:44;98.30;;;8.73;;
3700;SDS011;1866;48.374;10.766;2023-04-16T06:51:11;97.17;;;7.70;;
3700;SDS011;1866;48.374;10.766;2023-04-16T06:53:38;97.97;;;7.80;;
3700;SDS011;1866;48.374;10.766;2023-04-16T06:56:06;105.90;;;12.50;;
3700;SDS011;1866;48.374;10.766;2023-04-16T06:58:33;100.00;;;9.20;;
3700;SDS011;1866;48.374;10.766;2023-04-16T07:01:00;116.17;;;15.50;;
3700;SDS011;1866;48.374;10.766;2023-04-16T07:03:27;100.53;;;10.00;;
3700;SDS011;1866;48.374;10.766;2023-04-16T07:05:56;101.20;;;9.37;;
3700;SDS011;1866;48.374;10.766;2023-04-16T07:08:22;100.37;;;8.90;;
3700;SDS011;1866;48.374;10.766;2023-04-16T07:10:49;101.57;;;10.00;;
3700;SDS011;1866;48.374;10.766;2023-04-16T07:13:17;104.30;;;11.13;;
3700;SDS011;1866;48.374;10.766;2023-04-16T07:15:45;102.67;;;10.03;;
3700;SDS011;1866;48.374;10.766;2023-04-16T07:18:11;116.17;;;17.50;;
3700;SDS011;1866;48.374;10.766;2023-04-16T07:20:38;118.37;;;19.87;;
3700;SDS011;1866;48.374;10.766;2023-04-16T07:23:07;109.47;;;14.00;;
3700;SDS011;1866;48.374;10.766;2023-04-16T07:25:34;99.70;;;8.90;;
3700;SDS011;1866;48.374;10.766;2023-04-16T07:28:01;98.87;;;8.60;;
3700;SDS011;1866;48.374;10.766;2023-04-16T07:30:28;99.80;;;9.00;;
3700;SDS011;1866;48.374;10.766;2023-04-16T07:32:58;98.50;;;8.23;;
3700;SDS011;1866;48.374;10.766;2023-04-16T07:35:25;97.07;;;7.70;;
3700;SDS011;1866;48.374;10.766;2023-04-16T07:37:52;97.70;;;7.50;;
3700;SDS011;1866;48.374;10.766;2023-04-16T07:40:21;98.57;;;7.40;;
3700;SDS011;1866;48.374;10.766;2023-04-16T07:42:48;97.67;;;7.33;;
3700;SDS011;1866;48.374;10.766;2023-04-16T07:45:16;98.20;;;7.80;;
3700;SDS011;1866;48.374;10.766;2023-04-16T07:47:43;97.40;;;7.70;;
3700;SDS011;1866;48.374;10.766;2023-04-16T07:50:10;97.37;;;7.60;;
3700;SDS011;1866;48.374;10.766;2023-04-16T07:52:38;97.83;;;7.70;;
3700;SDS011;1866;48.374;10.766;2023-04-16T07:55:07;97.40;;;7.50;;
3700;SDS011;1866;48.374;10.766;2023-04-16T07:57:36;98.30;;;7.87;;
3700;SDS011;1866;48.374;10.766;2023-04-16T08:00:03;98.80;;;8.20;;
3700;SDS011;1866;48.374;10.766;2023-04-16T08:02:31;97.90;;;8.17;;
3700;SDS011;1866;48.374;10.766;2023-04-16T08:04:58;100.20;;;7.87;;
3700;SDS011;1866;48.374;10.766;2023-04-16T08:07:25;97.87;;;7.57;;
3700;SDS011;1866;48.374;10.766;2023-04-16T08:09:52;98.07;;;7.70;;
3700;SDS011;1866;48.374;10.766;2023-04-16T08:12:19;97.80;;;7.67;;
3700;SDS011;1866;48.374;10.766;2023-04-16T08:14:47;100.53;;;7.63;;
3700;SDS011;1866;48.374;10.766;2023-04-16T08:17:14;97.77;;;7.43;;
3700;SDS011;1866;48.374;10.766;2023-04-16T08:19:41;97.73;;;7.70;;
3700;SDS011;1866;48.374;10.766;2023-04-16T08:22:09;97.80;;;7.57;;
3700;SDS011;1866;48.374;10.766;2023-04-16T08:24:36;98.03;;;7.83;;
3700;SDS011;1866;48.374;10.766;2023-04-16T08:27:03;101.90;;;7.90;;
3700;SDS011;1866;48.374;10.766;2023-04-16T08:29:30;99.07;;;8.13;;
3700;SDS011;1866;48.374;10.766;2023-04-16T08:31:59;97.90;;;7.53;;
3700;SDS011;1866;48.374;10.766;2023-04-16T08:34:26;97.97;;;7.43;;
3700;SDS011;1866;48.374;10.766;2023-04-16T08:36:52;98.73;;;7.60;;
3700;SDS011;1866;48.374;10.766;2023-04-16T08:39:20;98.67;;;7.50;;
3700;SDS011;1866;48.374;10.766;2023-04-16T08:41:46;98.80;;;7.60;;
3700;SDS011;1866;48.374;10.766;2023-04-16T08:44:18;98.73;;;7.67;;
3700;SDS011;1866;48.374;10.766;2023-04-16T08:46:46;99.27;;;7.77;;
3700;SDS011;1866;48.374;10.766;2023-04-16T08:49:16;99.50;;;7.37;;
3700;SDS011;1866;48.374;10.766;2023-04-16T08:51:44;97.90;;;6.90;;
3700;SDS011;1866;48.374;10.766;2023-04-16T08:54:17;98.10;;;6.87;;
3700;SDS011;1866;48.374;10.766;2023-04-16T08:56:56;98.67;;;7.50;;
3700;SDS011;1866;48.374;10.766;2023-04-16T08:59:24;98.27;;;7.10;;
3700;SDS011;1866;48.374;10.766;2023-04-16T09:01:51;98.13;;;7.07;;
3700;SDS011;1866;48.374;10.766;2023-04-16T09:04:22;98.20;;;6.53;;
3700;SDS011;1866;48.374;10.766;2023-04-16T09:06:51;97.97;;;6.47;;
3700;SDS011;1866;48.374;10.766;2023-04-16T09:09:18;98.30;;;6.57;;
3700;SDS011;1866;48.374;10.766;2023-04-16T09:11:48;98.47;;;6.77;;
3700;SDS011;1866;48.374;10.766;2023-04-16T09:14:16;98.83;;;7.10;;
3700;SDS011;1866;48.374;10.766;2023-04-16T09:16:43;98.50;;;6.73;;
3700;SDS011;1866;48.374;10.766;2023-04-16T09:19:11;98.27;;;6.60;;
3700;SDS011;1866;48.374;10.766;2023-04-16T09:21:39;100.77;;;6.93;;
3700;SDS011;1866;48.374;10.766;2023-04-16T09:24:07;103.83;;;7.70;;
3700;SDS011;1866;48.374;10.766;2023-04-16T09:26:34;99.20;;;7.07;;
3700;SDS011;1866;48.374;10.766;2023-04-16T09:29:01;126.00;;;16.33;;
3700;SDS011;1866;48.374;10.766;2023-04-16T09:31:28;117.60;;;13.50;;
3700;SDS011;1866;48.374;10.766;2023-04-16T09:34:02;116.97;;;12.47;;
3700;SDS011;1866;48.374;10.766;2023-04-16T09:36:31;111.83;;;10.00;;
3700;SDS011;1866;48.374;10.766;2023-04-16T09:39:00;98.97;;;6.63;;
3700;SDS011;1866;48.374;10.766;2023-04-16T09:41:28;114.07;;;10.43;;
3700;SDS011;1866;48.374;10.766;2023-04-16T09:43:56;101.33;;;6.97;;
3700;SDS011;1866;48.374;10.766;2023-04-16T09:46:24;104.90;;;9.30;;
3700;SDS011;1866;48.374;10.766;2023-04-16T09:48:55;98.90;;;7.00;;
3700;SDS011;1866;48.374;10.766;2023-04-16T09:51:22;98.00;;;6.10;;
3700;SDS011;1866;48.374;10.766;2023-04-16T09:53:51;103.50;;;8.40;;
3700;SDS011;1866;48.374;10.766;2023-04-16T09:56:20;104.90;;;10.30;;
3700;SDS011;1866;48.374;10.766;2023-04-16T09:58:49;97.87;;;6.33;;
3700;SDS011;1866;48.374;10.766;2023-04-16T10:01:22;101.30;;;7.23;;
3700;SDS011;1866;48.374;10.766;2023-04-16T10:03:49;105.50;;;9.00;;
3700;SDS011;1866;48.374;10.766;2023-04-16T10:06:21;97.70;;;5.80;;
3700;SDS011;1866;48.374;10.766;2023-04-16T10:08:51;100.87;;;6.67;;
3700;SDS011;1866;48.374;10.766;2023-04-16T10:11:22;105.07;;;9.67;;
3700;SDS011;1866;48.374;10.766;2023-04-16T10:13:49;97.67;;;5.90;;
3700;SDS011;1866;48.374;10.766;2023-04-16T10:16:17;96.93;;;5.70;;
3700;SDS011;1866;48.374;10.766;2023-04-16T10:18:44;98.30;;;5.87;;
3700;SDS011;1866;48.374;10.766;2023-04-16T10:21:11;97.93;;;5.73;;
3700;SDS011;1866;48.374;10.766;2023-04-16T10:23:39;98.60;;;6.37;;
3700;SDS011;1866;48.374;10.766;2023-04-16T10:26:07;97.80;;;5.93;;
3700;SDS011;1866;48.374;10.766;2023-04-16T10:28:36;97.60;;;5.60;;
3700;SDS011;1866;48.374;10.766;2023-04-16T10:31:04;98.70;;;6.57;;
3700;SDS011;1866;48.374;10.766;2023-04-16T10:33:33;98.50;;;6.40;;
3700;SDS011;1866;48.374;10.766;2023-04-16T10:36:08;97.53;;;5.90;;
3700;SDS011;1866;48.374;10.766;2023-04-16T10:38:37;97.17;;;5.90;;
3700;SDS011;1866;48.374;10.766;2023-04-16T10:41:05;97.27;;;6.10;;
3700;SDS011;1866;48.374;10.766;2023-04-16T10:43:33;97.17;;;5.80;;
3700;SDS011;1866;48.374;10.766;2023-04-16T10:46:19;96.83;;;6.03;;
3700;SDS011;1866;48.374;10.766;2023-04-16T10:48:47;96.97;;;5.87;;
3700;SDS011;1866;48.374;10.766;2023-04-16T10:51:22;96.67;;;6.10;;
3700;SDS011;1866;48.374;10.766;2023-04-16T10:53:54;97.37;;;6.70;;
3700;SDS011;1866;48.374;10.766;2023-04-16T10:56:22;96.43;;;6.13;;
3700;SDS011;1866;48.374;10.766;2023-04-16T10:58:50;96.87;;;6.17;;
3700;SDS011;1866;48.374;10.766;2023-04-16T11:01:18;96.50;;;6.03;;
3700;SDS011;1866;48.374;10.766;2023-04-16T11:03:55;96.97;;;6.20;;
3700;SDS011;1866;48.374;10.766;2023-04-16T11:06:23;97.97;;;6.90;;
3700;SDS011;1866;48.374;10.766;2023-04-16T11:08:51;96.47;;;6.30;;
3700;SDS011;1866;48.374;10.766;2023-04-16T11:11:18;97.17;;;6.83;;
3700;SDS011;1866;48.374;10.766;2023-04-16T11:13:46;98.00;;;6.50;;
3700;SDS011;1866;48.374;10.766;2023-04-16T11:16:14;96.80;;;6.50;;
3700;SDS011;1866;48.374;10.766;2023-04-16T11:18:44;96.67;;;6.67;;
3700;SDS011;1866;48.374;10.766;2023-04-16T11:21:11;96.53;;;6.70;;
3700;SDS011;1866;48.374;10.766;2023-04-16T11:23:44;97.50;;;6.33;;
3700;SDS011;1866;48.374;10.766;2023-04-16T11:26:19;96.90;;;6.60;;
3700;SDS011;1866;48.374;10.766;2023-04-16T11:28:50;96.20;;;6.50;;
3700;SDS011;1866;48.374;10.766;2023-04-16T11:31:19;96.77;;;6.63;;
3700;SDS011;1866;48.374;10.766;2023-04-16T11:33:47;99.13;;;6.73;;
3700;SDS011;1866;48.374;10.766;2023-04-16T11:36:14;96.47;;;7.00;;
3700;SDS011;1866;48.374;10.766;2023-04-16T11:38:41;97.27;;;6.90;;
3700;SDS011;1866;48.374;10.766;2023-04-16T11:41:08;98.37;;;7.07;;
3700;SDS011;1866;48.374;10.766;2023-04-16T11:43:35;97.30;;;6.97;;
3700;SDS011;1866;48.374;10.766;2023-04-16T11:46:02;98.40;;;7.70;;
3700;SDS011;1866;48.374;10.766;2023-04-16T11:48:48;98.80;;;7.80;;
3700;SDS011;1866;48.374;10.766;2023-04-16T11:51:17;98.00;;;7.70;;
3700;SDS011;1866;48.374;10.766;2023-04-16T11:53:48;100.50;;;7.60;;
3700;SDS011;1866;48.374;10.766;2023-04-16T11:56:23;98.20;;;7.30;;
3700;SDS011;1866;48.374;10.766;2023-04-16T11:59:09;97.60;;;7.10;;
3700;SDS011;1866;48.374;10.766;2023-04-16T12:01:38;97.70;;;7.17;;
3700;SDS011;1866;48.374;10.766;2023-04-16T12:04:08;98.40;;;7.87;;
3700;SDS011;1866;48.374;10.766;2023-04-16T12:06:37;97.77;;;7.37;;
3700;SDS011;1866;48.374;10.766;2023-04-16T12:09:23;99.57;;;7.60;;
3700;SDS011;1866;48.374;10.766;2023-04-16T12:11:51;99.10;;;7.40;;
3700;SDS011;1866;48.374;10.766;2023-04-16T12:14:18;98.87;;;7.53;;
3700;SDS011;1866;48.374;10.766;2023-04-16T12:16:45;98.00;;;7.07;;
3700;SDS011;1866;48.374;10.766;2023-04-16T12:19:13;99.17;;;7.37;;
3700;SDS011;1866;48.374;10.766;2023-04-16T12:21:41;98.97;;;7.80;;
3700;SDS011;1866;48.374;10.766;2023-04-16T12:24:10;99.50;;;7.70;;
3700;SDS011;1866;48.374;10.766;2023-04-16T12:26:41;102.10;;;7.27;;
3700;SDS011;1866;48.374;10.766;2023-04-16T12:29:17;98.40;;;6.97;;
3700;SDS011;1866;48.374;10.766;2023-04-16T12:31:46;98.17;;;6.83;;
3700;SDS011;1866;48.374;10.766;2023-04-16T12:34:16;99.17;;;7.73;;
3700;SDS011;1866;48.374;10.766;2023-04-16T12:36:43;98.07;;;7.20;;
3700;SDS011;1866;48.374;10.766;2023-04-16T12:39:12;98.90;;;7.07;;
3700;SDS011;1866;48.374;10.766;2023-04-16T12:41:40;98.37;;;6.90;;
3700;SDS011;1866;48.374;10.766;2023-04-16T12:44:09;98.40;;;6.67;;
3700;SDS011;1866;48.374;10.766;2023-04-16T12:46:37;98.17;;;6.57;;
3700;SDS011;1866;48.374;10.766;2023-04-16T12:49:05;98.30;;;6.90;;
3700;SDS011;1866;48.374;10.766;2023-04-16T12:51:34;99.90;;;7.40;;
3700;SDS011;1866;48.374;10.766;2023-04-16T12:54:03;98.37;;;6.83;;
3700;SDS011;1866;48.374;10.766;2023-04-16T12:56:31;98.87;;;6.60;;
3700;SDS011;1866;48.374;10.766;2023-04-16T12:58:59;102.77;;;7.43;;
3700;SDS011;1866;48.374;10.766;2023-04-16T13:01:26;98.03;;;6.53;;
3700;SDS011;1866;48.374;10.766;2023-04-16T13:03:53;98.20;;;6.47;;
3700;SDS011;1866;48.374;10.766;2023-04-16T13:06:20;98.47;;;6.53;;
3700;SDS011;1866;48.374;10.766;2023-04-16T13:08:48;101.20;;;6.53;;
3700;SDS011;1866;48.374;10.766;2023-04-16T13:11:15;97.70;;;6.53;;
3700;SDS011;1866;48.374;10.766;2023-04-16T13:13:43;98.47;;;6.50;;
3700;SDS011;1866;48.374;10.766;2023-04-16T13:16:10;98.90;;;6.90;;
3700;SDS011;1866;48.374;10.766;2023-04-16T13:18:36;98.57;;;6.73;;
3700;SDS011;1866;48.374;10.766;2023-04-16T13:21:04;98.07;;;7.27;;
3700;SDS011;1866;48.374;10.766;2023-04-16T13:23:31;97.80;;;6.70;;
3700;SDS011;1866;48.374;10.766;2023-04-16T13:25:59;98.17;;;7.03;;
3700;SDS011;1866;48.374;10.766;2023-04-16T13:28:26;98.97;;;7.20;;
3700;SDS011;1866;48.374;10.766;2023-04-16T13:30:53;98.53;;;6.57;;
3700;SDS011;1866;48.374;10.766;2023-04-16T13:33:20;98.07;;;6.87;;
3700;SDS011;1866;48.374;10.766;2023-04-16T13:35:47;99.07;;;6.63;;
3700;SDS011;1866;48.374;10.766;2023-04-16T13:38:14;98.37;;;6.80;;
3700;SDS011;1866;48.374;10.766;2023-04-16T13:40:41;98.70;;;6.53;;
3700;SDS011;1866;48.374;10.766;2023-04-16T13:43:10;97.90;;;6.80;;
3700;SDS011;1866;48.374;10.766;2023-04-16T13:45:37;99.67;;;6.77;;
3700;SDS011;1866;48.374;10.766;2023-04-16T13:48:04;97.60;;;6.73;;
3700;SDS011;1866;48.374;10.766;2023-04-16T13:50:31;97.80;;;6.70;;
3700;SDS011;1866;48.374;10.766;2023-04-16T13:52:59;97.57;;;6.50;;
3700;SDS011;1866;48.374;10.766;2023-04-16T13:55:26;98.30;;;7.07;;
3700;SDS011;1866;48.374;10.766;2023-04-16T13:57:53;99.00;;;7.40;;
3700;SDS011;1866;48.374;10.766;2023-04-16T14:00:21;98.57;;;7.40;;
3700;SDS011;1866;48.374;10.766;2023-04-16T14:02:48;97.90;;;7.30;;
3700;SDS011;1866;48.374;10.766;2023-04-16T14:05:15;98.37;;;6.90;;
3700;SDS011;1866;48.374;10.766;2023-04-16T14:07:44;98.47;;;7.40;;
3700;SDS011;1866;48.374;10.766;2023-04-16T14:10:11;99.77;;;7.43;;
3700;SDS011;1866;48.374;10.766;2023-04-16T14:12:38;98.67;;;7.23;;
3700;SDS011;1866;48.374;10.766;2023-04-16T14:15:05;97.97;;;7.17;;
3700;SDS011;1866;48.374;10.766;2023-04-16T14:17:35;99.73;;;7.13;;
3700;SDS011;1866;48.374;10.766;2023-04-16T14:20:02;97.90;;;7.20;;
3700;SDS011;1866;48.374;10.766;2023-04-16T14:22:30;100.20;;;7.67;;
3700;SDS011;1866;48.374;10.766;2023-04-16T14:24:58;98.17;;;7.80;;
3700;SDS011;1866;48.374;10.766;2023-04-16T14:27:25;98.20;;;7.67;;
3700;SDS011;1866;48.374;10.766;2023-04-16T14:29:52;98.50;;;8.20;;
3700;SDS011;1866;48.374;10.766;2023-04-16T14:32:19;98.37;;;8.17;;
3700;SDS011;1866;48.374;10.766;2023-04-16T14:34:47;100.57;;;7.87;;
3700;SDS011;1866;48.374;10.766;2023-04-16T14:37:16;98.17;;;7.80;;
3700;SDS011;1866;48.374;10.766;2023-04-16T14:39:43;98.93;;;7.80;;
3700;SDS011;1866;48.374;10.766;2023-04-16T14:42:10;100.77;;;7.90;;
3700;SDS011;1866;48.374;10.766;2023-04-16T14:44:37;98.70;;;7.77;;
3700;SDS011;1866;48.374;10.766;2023-04-16T14:47:03;102.30;;;8.60;;
3700;SDS011;1866;48.374;10.766;2023-04-16T14:49:32;98.90;;;8.67;;